createdAt,value
2022-11-22T00:00:25.164Z,38.75
2022-11-22T00:02:51.709Z,37.28
2022-11-22T00:05:18.273Z,36.72
2022-11-22T00:07:44.767Z,39.20
2022-11-22T00:10:13.397Z,41.83
2022-11-22T00:12:40.707Z,38.75
2022-11-22T00:15:07.799Z,41.90
2022-11-22T00:17:35.137Z,37.08
2022-11-22T00:20:01.640Z,39.13
2022-11-22T00:22:28.076Z,40.90
2022-11-22T00:24:54.707Z,40.72
2022-11-22T00:27:21.347Z,44.40
2022-11-22T00:29:47.849Z,42.20
2022-11-22T00:32:14.304Z,43.85
2022-11-22T00:34:40.858Z,41.72
2022-11-22T00:37:08.096Z,45.13
2022-11-22T00:39:34.581Z,40.00
2022-11-22T00:42:01.024Z,42.28
2022-11-22T00:44:27.516Z,41.70
2022-11-22T00:46:54.284Z,42.90
2022-11-22T00:49:20.735Z,40.22
2022-11-22T00:51:47.197Z,41.58
2022-11-22T00:54:13.686Z,43.45
2022-11-22T00:56:40.099Z,41.63
2022-11-22T00:59:06.561Z,40.53
2022-11-22T01:01:33.191Z,44.05
2022-11-22T01:04:00.151Z,41.92
2022-11-22T01:06:26.592Z,39.90
2022-11-22T01:08:53.338Z,40.40
2022-11-22T01:11:20.353Z,37.42
2022-11-22T01:13:46.877Z,40.70
2022-11-22T01:16:14.003Z,39.38
2022-11-22T01:18:40.758Z,40.70
2022-11-22T01:21:07.509Z,38.33
2022-11-22T01:23:34.905Z,35.63
2022-11-22T01:26:02.415Z,31.90
2022-11-22T01:28:28.908Z,32.15
2022-11-22T01:30:55.443Z,32.33
2022-11-22T01:33:22.014Z,32.92
2022-11-22T01:35:48.628Z,30.17
2022-11-22T01:38:15.406Z,27.63
2022-11-22T01:40:41.876Z,28.80
2022-11-22T01:47:04.250Z,26.63
2022-11-22T01:49:40.640Z,24.42
2022-11-22T01:52:12.781Z,26.77
2022-11-22T01:54:42.452Z,23.85
2022-11-22T01:57:14.535Z,25.45
2022-11-22T01:59:48.895Z,26.63
2022-11-22T02:02:15.448Z,27.48
2022-11-22T02:04:43.804Z,31.38
2022-11-22T02:07:18.033Z,35.67
2022-11-22T02:09:46.308Z,32.38
2022-11-22T02:12:13.374Z,34.80
2022-11-22T02:14:40.660Z,33.90
2022-11-22T02:17:07.194Z,32.83
2022-11-22T02:19:41.724Z,33.38
2022-11-22T02:22:38.609Z,31.98
2022-11-22T02:25:23.758Z,28.23
2022-11-22T02:27:50.754Z,32.00
2022-11-22T02:30:17.624Z,29.08
2022-11-22T02:32:44.309Z,27.60
2022-11-22T02:35:16.774Z,38.00
2022-11-22T02:37:43.289Z,51.03
2022-11-22T02:40:14.934Z,66.10
2022-11-22T02:42:46.252Z,55.88
2022-11-22T02:45:12.846Z,45.83
2022-11-22T02:47:39.251Z,38.50
2022-11-22T02:50:06.219Z,36.97
2022-11-22T02:52:32.656Z,32.20
2022-11-22T02:54:59.059Z,33.58
2022-11-22T02:57:25.573Z,33.58
2022-11-22T02:59:52.021Z,34.30
2022-11-22T03:02:18.432Z,32.70
2022-11-22T03:04:44.835Z,32.58
2022-11-22T03:07:11.315Z,31.95
2022-11-22T03:09:37.862Z,31.20
2022-11-22T03:12:04.371Z,27.92
2022-11-22T03:14:30.854Z,27.23
2022-11-22T03:16:57.258Z,25.83
2022-11-22T03:19:23.701Z,23.73
2022-11-22T03:21:50.976Z,22.38
2022-11-22T03:24:18.027Z,21.75
2022-11-22T03:26:48.969Z,21.13
2022-11-22T03:29:16.847Z,24.45
2022-11-22T03:31:43.351Z,19.70
2022-11-22T03:34:11.953Z,22.60
2022-11-22T03:36:38.387Z,20.92
2022-11-22T03:39:04.819Z,18.77
2022-11-22T03:41:31.306Z,22.52
2022-11-22T03:43:57.722Z,21.13
2022-11-22T03:46:24.225Z,22.67
2022-11-22T03:48:50.664Z,21.45
2022-11-22T03:51:17.354Z,17.45
2022-11-22T03:53:43.776Z,16.27
2022-11-22T03:56:10.265Z,13.88
2022-11-22T03:58:36.815Z,13.70
2022-11-22T04:01:03.473Z,9.88
2022-11-22T04:03:30.053Z,7.25
2022-11-22T04:05:56.595Z,7.03
2022-11-22T04:08:23.322Z,6.82
2022-11-22T04:10:50.550Z,7.15
2022-11-22T04:13:17.582Z,8.13
2022-11-22T04:15:44.114Z,7.80
2022-11-22T04:18:12.370Z,8.38
2022-11-22T04:20:57.742Z,8.70
2022-11-22T04:23:32.255Z,8.35
2022-11-22T04:26:00.367Z,7.82
2022-11-22T04:29:01.481Z,5.22
2022-11-22T04:31:33.303Z,6.00
2022-11-22T04:33:59.743Z,4.50
2022-11-22T04:36:26.158Z,4.47
2022-11-22T04:38:52.606Z,3.15
2022-11-22T04:41:19.020Z,3.58
2022-11-22T04:44:04.196Z,2.83
2022-11-22T04:46:31.509Z,3.10
2022-11-22T04:48:58.045Z,2.63
2022-11-22T04:51:42.825Z,2.95
2022-11-22T04:54:09.219Z,2.47
2022-11-22T04:56:35.660Z,2.90
2022-11-22T04:59:02.103Z,2.33
2022-11-22T05:01:28.559Z,3.25
2022-11-22T05:03:54.981Z,2.50
2022-11-22T05:06:21.399Z,2.88
2022-11-22T05:08:47.846Z,3.17
2022-11-22T05:11:14.318Z,3.13
2022-11-22T05:13:42.309Z,3.08
2022-11-22T05:16:11.232Z,3.45
2022-11-22T05:18:38.054Z,5.15
2022-11-22T05:21:10.474Z,4.60
2022-11-22T05:23:55.042Z,4.32
2022-11-22T05:26:27.989Z,5.28
2022-11-22T05:28:54.913Z,4.22
2022-11-22T05:31:23.483Z,4.95
2022-11-22T05:33:52.371Z,4.50
2022-11-22T05:36:19.092Z,5.55
2022-11-22T05:38:45.523Z,3.83
2022-11-22T05:41:13.866Z,3.53
2022-11-22T05:43:41.007Z,4.18
2022-11-22T05:46:24.652Z,4.32
2022-11-22T05:48:52.971Z,4.03
2022-11-22T05:51:21.700Z,3.10
2022-11-22T05:53:48.560Z,2.80
2022-11-22T05:56:18.244Z,2.97
2022-11-22T05:58:45.206Z,2.78
2022-11-22T06:01:14.781Z,2.20
2022-11-22T06:03:41.258Z,2.63
2022-11-22T06:06:09.323Z,3.13
2022-11-22T06:08:39.180Z,3.83
2022-11-22T06:11:07.743Z,2.88
2022-11-22T06:13:39.047Z,2.55
2022-11-22T06:16:07.293Z,2.50
2022-11-22T06:18:34.646Z,3.33
2022-11-22T06:21:03.428Z,3.35
2022-11-22T06:23:30.544Z,3.60
2022-11-22T06:26:11.858Z,2.92
2022-11-22T06:28:40.009Z,2.90
2022-11-22T06:31:09.905Z,3.50
2022-11-22T06:33:36.642Z,3.95
2022-11-22T06:36:14.539Z,2.95
2022-11-22T06:38:42.605Z,3.92
2022-11-22T06:41:10.973Z,3.15
2022-11-22T06:43:41.404Z,3.20
2022-11-22T06:46:12.248Z,3.92
2022-11-22T06:48:40.490Z,3.90
2022-11-22T06:51:10.806Z,3.83
2022-11-22T06:53:51.995Z,3.50
2022-11-22T06:56:24.737Z,3.53
2022-11-22T06:58:52.858Z,2.58
2022-11-22T07:01:20.977Z,3.83
2022-11-22T07:03:48.466Z,2.95
2022-11-22T07:06:17.163Z,4.63
2022-11-22T07:08:43.906Z,3.35
2022-11-22T07:11:14.133Z,3.42
2022-11-22T07:13:40.821Z,4.30
2022-11-22T07:16:08.787Z,4.95
2022-11-22T07:18:35.209Z,3.08
2022-11-22T07:21:13.761Z,3.47
2022-11-22T07:23:45.187Z,3.20
2022-11-22T07:26:12.930Z,3.42
2022-11-22T07:28:39.802Z,3.17
2022-11-22T07:31:08.711Z,4.28
2022-11-22T07:33:36.068Z,2.88
2022-11-22T07:36:10.762Z,3.03
2022-11-22T07:38:37.687Z,3.40
2022-11-22T07:41:05.251Z,3.15
2022-11-22T07:43:31.832Z,2.60
2022-11-22T07:46:03.033Z,2.25
2022-11-22T07:48:29.692Z,2.38
2022-11-22T07:50:56.185Z,2.80
2022-11-22T07:53:23.266Z,3.15
2022-11-22T07:55:49.748Z,2.80
2022-11-22T07:58:16.172Z,2.30
2022-11-22T08:00:42.723Z,2.85
2022-11-22T08:03:09.234Z,2.95
2022-11-22T08:05:35.765Z,3.30
2022-11-22T08:08:02.243Z,3.03
2022-11-22T08:10:28.725Z,3.88
2022-11-22T08:12:58.805Z,3.35
2022-11-22T08:15:25.440Z,3.47
2022-11-22T08:17:52.091Z,3.00
2022-11-22T08:20:18.557Z,3.10
2022-11-22T08:22:44.989Z,2.85
2022-11-22T08:25:14.160Z,3.13
2022-11-22T08:27:42.069Z,2.60
2022-11-22T08:30:10.030Z,3.38
2022-11-22T08:32:36.922Z,4.35
2022-11-22T08:35:04.251Z,5.57
2022-11-22T08:37:30.812Z,3.17
2022-11-22T08:39:57.395Z,4.05
2022-11-22T08:42:24.195Z,3.53
2022-11-22T08:44:50.648Z,3.53
2022-11-22T08:47:17.614Z,4.80
2022-11-22T08:49:44.225Z,11.35
2022-11-22T08:52:10.695Z,11.55
2022-11-22T08:54:38.183Z,6.32
2022-11-22T08:57:05.413Z,4.85
2022-11-22T08:59:32.450Z,5.40
2022-11-22T09:01:59.345Z,5.15
2022-11-22T09:04:26.162Z,4.32
2022-11-22T09:09:38.959Z,4.93
2022-11-22T09:12:05.787Z,4.18
2022-11-22T09:14:32.252Z,4.50
2022-11-22T09:16:58.663Z,3.70
2022-11-22T09:19:25.151Z,3.78
2022-11-22T09:21:51.636Z,3.75
2022-11-22T09:24:18.055Z,3.45
2022-11-22T09:26:44.629Z,3.53
2022-11-22T09:29:11.106Z,4.97
2022-11-22T09:31:37.570Z,4.80
2022-11-22T09:34:04.125Z,4.10
2022-11-22T09:36:30.961Z,3.53
2022-11-22T09:38:57.425Z,3.28
2022-11-22T09:41:42.576Z,3.60
2022-11-22T09:44:59.595Z,2.90
2022-11-22T09:47:37.960Z,2.55
2022-11-22T09:50:31.048Z,3.40
2022-11-22T09:53:04.438Z,4.22
2022-11-22T09:55:40.987Z,5.25
2022-11-22T09:58:10.460Z,5.15
2022-11-22T10:00:41.130Z,3.40
2022-11-22T10:03:26.104Z,3.95
2022-11-22T10:05:56.547Z,4.90
2022-11-22T10:08:41.131Z,5.38
2022-11-22T10:11:18.783Z,5.03
2022-11-22T10:13:54.377Z,4.78
2022-11-22T10:16:29.675Z,5.90
2022-11-22T10:19:02.760Z,5.68
2022-11-22T10:21:29.282Z,5.25
2022-11-22T10:23:55.746Z,5.28
2022-11-22T10:26:34.145Z,5.55
2022-11-22T10:29:12.653Z,6.22
2022-11-22T10:31:57.294Z,5.20
2022-11-22T10:34:29.723Z,6.30
2022-11-22T10:37:02.275Z,6.70
2022-11-22T10:39:42.527Z,4.30
2022-11-22T10:42:18.179Z,5.70
2022-11-22T10:44:57.684Z,5.70
2022-11-22T10:47:39.496Z,5.75
2022-11-22T10:50:06.068Z,5.28
2022-11-22T10:52:53.929Z,5.35
2022-11-22T10:55:25.976Z,4.47
2022-11-22T10:57:52.432Z,5.38
2022-11-22T11:00:24.863Z,5.10
2022-11-22T11:02:56.899Z,4.70
2022-11-22T11:05:29.622Z,3.95
2022-11-22T11:08:21.713Z,5.50
2022-11-22T11:10:47.296Z,6.07
2022-11-22T11:13:29.884Z,4.90
2022-11-22T11:16:01.701Z,4.03
2022-11-22T11:18:36.281Z,3.92
2022-11-22T11:21:06.622Z,3.60
2022-11-22T11:23:34.749Z,3.85
2022-11-22T11:26:15.072Z,4.03
2022-11-22T11:28:41.579Z,4.00
2022-11-22T11:31:10.399Z,4.63
2022-11-22T11:33:39.167Z,4.95
2022-11-22T11:36:20.235Z,3.53
2022-11-22T11:38:46.694Z,4.43
2022-11-22T11:41:29.502Z,4.60
2022-11-22T11:44:01.616Z,4.75
2022-11-22T11:46:29.939Z,3.80
2022-11-22T11:49:10.647Z,3.88
2022-11-22T11:51:42.634Z,5.07
2022-11-22T11:54:15.738Z,3.63
2022-11-22T11:56:51.921Z,5.00
2022-11-22T11:59:20.665Z,4.60
2022-11-22T12:01:55.554Z,4.40
2022-11-22T12:04:25.434Z,5.53
2022-11-22T12:07:16.336Z,3.85
2022-11-22T12:09:45.770Z,4.60
2022-11-22T12:12:38.581Z,4.95
2022-11-22T12:15:14.708Z,3.90
2022-11-22T12:17:52.663Z,4.95
2022-11-22T12:20:25.055Z,3.50
2022-11-22T12:23:04.814Z,3.30
2022-11-22T12:25:40.320Z,4.38
2022-11-22T12:28:23.182Z,4.95
2022-11-22T12:30:55.612Z,4.32
2022-11-22T12:33:33.521Z,4.32
2022-11-22T12:36:02.382Z,4.05
2022-11-22T12:38:36.581Z,3.85
2022-11-22T12:41:07.582Z,4.20
2022-11-22T12:43:42.029Z,2.85
2022-11-22T12:46:25.991Z,3.67
2022-11-22T12:48:57.866Z,3.20
2022-11-22T12:51:44.475Z,2.83
2022-11-22T12:54:16.314Z,3.88
2022-11-22T12:56:53.247Z,2.10
2022-11-22T12:59:38.561Z,2.35
2022-11-22T13:02:04.950Z,0.93
2022-11-22T13:05:00.396Z,1.00
2022-11-22T13:07:36.089Z,2.25
2022-11-22T13:10:20.529Z,3.55
2022-11-22T13:12:48.688Z,3.17
2022-11-22T13:15:25.815Z,1.88
2022-11-22T13:17:53.319Z,1.58
2022-11-22T13:20:41.191Z,2.80
2022-11-22T13:23:45.744Z,3.92
2022-11-22T13:26:21.183Z,4.35
2022-11-22T13:28:50.127Z,4.35
2022-11-22T13:31:19.507Z,4.70
2022-11-22T13:34:01.366Z,3.70
2022-11-22T13:36:27.748Z,3.97
2022-11-22T13:39:00.472Z,5.13
2022-11-22T13:41:52.147Z,8.10
2022-11-22T13:46:53.954Z,4.53
2022-11-22T13:49:47.974Z,4.35
2022-11-22T13:52:15.363Z,3.42
2022-11-22T13:54:48.051Z,2.65
2022-11-22T13:57:36.503Z,5.05
2022-11-22T14:00:12.420Z,15.07
2022-11-22T14:02:46.494Z,12.23
2022-11-22T14:05:25.632Z,6.50
2022-11-22T14:07:56.863Z,5.80
2022-11-22T14:10:40.091Z,4.25
2022-11-22T14:13:24.554Z,6.60
2022-11-22T14:15:58.588Z,9.77
2022-11-22T14:18:43.579Z,9.02
2022-11-22T14:21:17.683Z,7.03
2022-11-22T14:24:11.373Z,7.30
2022-11-22T14:26:57.939Z,8.15
2022-11-22T14:29:53.569Z,10.60
2022-11-22T14:32:25.361Z,11.18
2022-11-22T14:35:03.651Z,8.23
2022-11-22T14:37:31.759Z,9.15
2022-11-22T14:40:12.663Z,7.70
2022-11-22T14:42:40.422Z,9.35
2022-11-22T14:45:12.792Z,10.98
2022-11-22T14:47:45.437Z,10.75
2022-11-22T14:50:33.570Z,10.73
2022-11-22T14:53:21.414Z,7.63
2022-11-22T14:55:50.222Z,10.25
2022-11-22T14:58:24.380Z,9.65
2022-11-22T15:01:18.485Z,8.18
2022-11-22T15:09:19.925Z,10.30
2022-11-22T15:09:21.957Z,25.50
2022-11-22T15:10:48.409Z,37.90
2022-11-22T15:13:41.978Z,12.73
2022-11-22T15:57:28.265Z,16.80
2022-11-22T15:59:55.651Z,17.00
2022-11-22T16:02:29.656Z,18.08
2022-11-22T16:06:09.767Z,12.05
2022-11-22T16:08:03.864Z,9.95
2022-11-22T16:10:42.342Z,16.25
2022-11-22T16:13:33.239Z,28.05
2022-11-22T16:16:11.995Z,24.90
2022-11-22T16:18:43.510Z,28.98
2022-11-22T16:21:10.572Z,37.25
2022-11-22T16:23:38.445Z,32.90
2022-11-22T16:26:30.274Z,17.83
2022-11-22T16:29:18.094Z,24.85
2022-11-22T16:31:44.577Z,29.27
2022-11-22T16:34:16.179Z,15.05
2022-11-22T16:36:42.795Z,10.77
2022-11-22T16:39:09.202Z,8.35
2022-11-22T16:41:35.952Z,9.35
2022-11-22T16:44:10.832Z,7.45
2022-11-22T16:46:37.228Z,8.38
2022-11-22T16:49:31.643Z,8.48
2022-11-22T16:51:58.155Z,8.38
2022-11-22T16:54:24.606Z,9.60
2022-11-22T16:56:51.056Z,12.48
2022-11-22T16:59:17.500Z,12.40
2022-11-22T17:01:44.339Z,10.63
2022-11-22T17:04:25.318Z,15.05
2022-11-22T17:06:52.285Z,11.65
2022-11-22T17:09:18.883Z,9.05
2022-11-22T17:11:45.494Z,7.40
2022-11-22T17:14:17.019Z,7.50
2022-11-22T17:16:45.749Z,7.78
2022-11-22T17:19:37.588Z,15.13
2022-11-22T17:21:58.767Z,20.60
2022-11-22T17:24:25.558Z,17.38
2022-11-22T17:26:52.207Z,12.40
2022-11-22T17:29:43.277Z,10.65
2022-11-22T17:32:05.348Z,10.05
2022-11-22T17:34:32.145Z,17.20
2022-11-22T17:36:58.812Z,14.32
2022-11-22T17:39:25.312Z,13.13
2022-11-22T17:41:51.785Z,13.60
2022-11-22T17:44:18.471Z,13.10
2022-11-22T17:46:46.199Z,9.48
2022-11-22T17:49:16.042Z,10.48
2022-11-22T17:51:43.140Z,13.38
2022-11-22T17:54:09.626Z,8.25
2022-11-22T17:56:37.173Z,8.80
2022-11-22T17:59:04.207Z,10.55
2022-11-22T18:01:30.756Z,12.05
2022-11-22T18:03:57.216Z,8.88
2022-11-22T18:06:26.062Z,10.73
2022-11-22T18:08:52.539Z,9.48
2022-11-22T18:11:19.117Z,8.25
2022-11-22T18:13:45.563Z,7.75
2022-11-22T18:16:15.266Z,8.77
2022-11-22T18:18:56.838Z,9.60
2022-11-22T18:21:24.540Z,9.18
2022-11-22T18:23:51.085Z,7.63
2022-11-22T18:26:38.711Z,9.32
2022-11-22T18:31:52.951Z,9.35
2022-11-22T18:34:20.258Z,8.18
2022-11-22T18:36:57.716Z,8.07
2022-11-22T18:39:27.573Z,8.80
2022-11-22T18:41:54.072Z,10.02
2022-11-22T18:44:20.521Z,10.63
2022-11-22T18:46:47.908Z,9.15
2022-11-22T18:49:14.463Z,9.05
2022-11-22T18:51:41.071Z,9.63
2022-11-22T18:54:08.728Z,17.63
2022-11-22T18:56:37.881Z,15.15
2022-11-22T18:59:06.181Z,16.75
2022-11-22T19:01:34.664Z,15.32
2022-11-22T19:04:01.832Z,18.70
2022-11-22T19:06:28.576Z,18.98
2022-11-22T19:08:55.345Z,17.08
2022-11-22T19:11:21.936Z,11.15
2022-11-22T19:13:48.439Z,10.38
2022-11-22T19:16:18.101Z,12.18
2022-11-22T19:18:45.616Z,21.45
2022-11-22T19:21:15.189Z,22.27
2022-11-22T19:23:42.112Z,19.25
2022-11-22T19:26:11.328Z,21.40
2022-11-22T19:28:37.782Z,28.13
2022-11-22T19:31:10.956Z,23.25
2022-11-22T19:33:37.848Z,20.05
2022-11-22T19:36:06.743Z,33.03
2022-11-22T19:38:33.242Z,31.13
2022-11-22T19:40:59.753Z,30.90
2022-11-22T19:43:26.170Z,23.02
2022-11-22T19:45:52.658Z,30.27
2022-11-22T19:48:19.199Z,43.10
2022-11-22T19:50:45.844Z,47.10
2022-11-22T19:53:12.300Z,33.03
2022-11-22T19:55:45.289Z,27.80
2022-11-22T19:58:12.273Z,30.42
2022-11-22T20:00:38.781Z,29.52
2022-11-22T20:03:05.217Z,32.28
2022-11-22T20:05:32.235Z,25.50
2022-11-22T20:07:59.061Z,16.38
2022-11-22T20:10:26.006Z,12.95
2022-11-22T20:12:52.590Z,9.02
2022-11-22T20:15:19.325Z,9.38
2022-11-22T20:17:45.746Z,9.27
2022-11-22T20:20:12.277Z,11.10
2022-11-22T20:22:38.708Z,12.00
2022-11-22T20:25:05.851Z,9.85
2022-11-22T20:27:32.476Z,11.73
2022-11-22T20:30:01.215Z,11.52
2022-11-22T20:32:29.086Z,11.75
2022-11-22T20:34:55.564Z,10.50
2022-11-22T20:37:22.097Z,11.57
2022-11-22T20:39:48.610Z,11.73
2022-11-22T20:45:03.473Z,9.48
2022-11-22T20:47:30.770Z,11.25
2022-11-22T20:49:57.194Z,8.00
2022-11-22T20:52:23.652Z,9.02
2022-11-22T20:54:50.049Z,9.23
2022-11-22T20:57:16.569Z,10.35
2022-11-22T20:59:43.103Z,10.00
2022-11-22T21:02:12.505Z,10.95
2022-11-22T21:04:39.062Z,10.55
2022-11-22T21:07:05.622Z,11.15
2022-11-22T21:09:32.384Z,10.85
2022-11-22T21:11:58.867Z,10.63
2022-11-22T21:14:25.340Z,11.05
2022-11-22T21:16:51.829Z,10.85
2022-11-22T21:19:19.269Z,10.18
2022-11-22T21:21:45.771Z,7.82
2022-11-22T21:24:13.399Z,9.73
2022-11-22T21:26:40.623Z,9.02
2022-11-22T21:29:16.021Z,9.60
2022-11-22T21:31:43.130Z,9.13
2022-11-22T21:34:09.713Z,8.85
2022-11-22T21:36:36.210Z,8.73
2022-11-22T21:39:02.775Z,9.00
2022-11-22T21:41:39.715Z,8.65
2022-11-22T21:44:07.500Z,9.70
2022-11-22T21:46:33.980Z,8.70
2022-11-22T21:49:00.483Z,9.65
2022-11-22T21:51:27.062Z,9.05
2022-11-22T21:54:01.056Z,10.88
2022-11-22T21:56:27.923Z,10.00
2022-11-22T21:58:54.883Z,9.27
2022-11-22T22:01:21.591Z,9.70
2022-11-22T22:03:48.119Z,11.35
2022-11-22T22:06:14.668Z,11.60
2022-11-22T22:08:41.217Z,11.38
2022-11-22T22:11:08.090Z,10.15
2022-11-22T22:13:34.893Z,10.05
2022-11-22T22:16:06.479Z,11.13
2022-11-22T22:18:36.104Z,10.77
2022-11-22T22:21:07.687Z,10.02
2022-11-22T22:23:35.304Z,10.93
2022-11-22T22:26:03.577Z,9.50
2022-11-22T22:28:31.973Z,11.20
2022-11-22T22:31:09.591Z,10.35
2022-11-22T22:33:38.250Z,11.68
2022-11-22T22:36:06.245Z,10.52
2022-11-22T22:38:33.521Z,11.45
2022-11-22T22:41:02.035Z,9.75
2022-11-22T22:43:34.386Z,11.13
2022-11-22T22:46:06.595Z,10.50
2022-11-22T22:48:33.661Z,9.68
2022-11-22T22:51:07.572Z,10.48
2022-11-22T22:53:34.640Z,10.50
2022-11-22T22:56:01.143Z,10.45
2022-11-22T22:58:28.033Z,13.20
2022-11-22T23:00:54.622Z,11.23
2022-11-22T23:03:21.386Z,10.20
2022-11-22T23:05:48.532Z,11.27
2022-11-22T23:08:16.098Z,16.40
2022-11-22T23:10:44.211Z,12.75
2022-11-22T23:13:10.890Z,13.13
2022-11-22T23:15:57.344Z,15.18
2022-11-22T23:18:24.972Z,13.07
2022-11-22T23:20:51.424Z,11.68
2022-11-22T23:23:18.194Z,11.40
2022-11-22T23:25:44.621Z,11.90
2022-11-22T23:28:11.025Z,10.82
2022-11-22T23:30:37.455Z,11.15
2022-11-22T23:33:03.890Z,12.40
2022-11-22T23:35:30.471Z,14.23
2022-11-22T23:37:56.947Z,16.45
2022-11-22T23:40:23.365Z,23.15
2022-11-22T23:42:49.789Z,20.05
2022-11-22T23:45:16.338Z,21.95
2022-11-22T23:47:42.776Z,18.80
2022-11-22T23:50:09.715Z,17.85
2022-11-22T23:52:36.202Z,17.88
2022-11-22T23:55:02.703Z,16.75
2022-11-22T23:57:29.379Z,13.43
2022-11-22T23:59:56.078Z,16.90
